Time;durP1;ratioP1;P1;durP2;ratioP2;P2;SDS_P1;SDS_P2;PMS_P1;PMS_P2;Temp;Humidity;BMP_temperature;BMP_pressure;BME280_temperature;BME280_humidity;BME280_pressure;Samples;Min_cycle;Max_cycle;Signal;HPM_P1;HPM_P2
2021/11/17 02:28:30;;;;;;;14.50;11.68;;;;;;;2.29;84.65;96957.57;1732161;83;21477;-82
2021/11/17 02:31:16;;;;;;;13.48;11.68;;;;;;;2.28;84.66;96953.38;1732213;83;20986;-82
2021/11/17 02:34:13;;;;;;;14.70;12.03;;;;;;;2.23;84.61;96955.92;1731300;83;20982;-82
2021/11/17 02:37:15;;;;;;;15.05;11.22;;;;;;;2.21;84.71;96948.81;1731952;83;21389;-82
2021/11/17 02:40:07;;;;;;;12.55;9.83;;;;;;;2.19;84.62;96945.09;1732937;83;21065;-82
2021/11/17 02:43:01;;;;;;;13.28;11.88;;;;;;;2.20;84.54;96949.28;1735608;83;21037;-82
2021/11/17 02:45:36;;;;;;;15.88;12.23;;;;;;;2.20;84.52;96939.03;1735061;83;20966;-82
2021/11/17 02:48:16;;;;;;;16.77;12.58;;;;;;;2.18;84.60;96929.36;1734948;83;21005;-82
2021/11/17 02:51:05;;;;;;;18.00;12.75;;;;;;;2.17;84.63;96934.60;1734261;83;20958;-82
2021/11/17 02:53:56;;;;;;;16.97;12.68;;;;;;;2.13;84.73;96934.48;1734157;83;21045;-83
2021/11/17 02:56:58;;;;;;;14.63;11.30;;;;;;;2.09;84.78;96938.55;1733798;83;20986;-82
2021/11/17 02:59:45;;;;;;;12.33;10.43;;;;;;;2.10;84.85;96938.08;1734962;83;22139;-82
2021/11/17 03:02:22;;;;;;;12.68;9.68;;;;;;;2.11;84.78;96934.58;1746148;81;21001;-82
2021/11/17 03:05:13;;;;;;;14.85;11.57;;;;;;;2.13;84.79;96936.59;1759860;81;21348;-82
2021/11/17 03:07:52;;;;;;;14.40;10.98;;;;;;;2.14;84.80;96932.28;1760816;81;21046;-82
2021/11/17 03:10:39;;;;;;;12.55;11.12;;;;;;;2.13;84.84;96939.62;1761036;81;21439;-82
2021/11/17 03:13:13;;;;;;;16.60;12.75;;;;;;;2.12;85.02;96945.68;1760920;81;20998;-82
2021/11/17 03:15:57;;;;;;;14.07;11.00;;;;;;;2.10;85.13;96940.17;1760001;81;20990;-82
2021/11/17 03:18:41;;;;;;;13.45;10.35;;;;;;;2.10;85.10;96939.36;1759682;81;21018;-82
2021/11/17 03:21:20;;;;;;;13.15;10.32;;;;;;;2.11;85.04;96937.14;1760898;81;21385;-81
2021/11/17 03:24:19;;;;;;;14.20;10.95;;;;;;;2.12;84.98;96936.23;1760987;81;21027;-82
2021/11/17 03:27:18;;;;;;;14.05;10.80;;;;;;;2.17;84.99;96939.27;1760143;81;20990;-82
2021/11/17 03:30:24;;;;;;;13.08;10.88;;;;;;;2.19;84.85;96937.39;1760275;81;20970;-82
2021/11/17 03:33:45;;;;;;;14.23;11.57;;;;;;;2.19;84.66;96932.73;1760907;81;21401;-82
2021/11/17 03:36:42;;;;;;;13.38;10.55;;;;;;;2.16;84.67;96937.63;1760858;81;21443;-82
2021/11/17 03:39:25;;;;;;;13.48;10.72;;;;;;;2.10;84.64;96936.33;1760175;81;21029;-82
2021/11/17 03:42:15;;;;;;;14.13;10.23;;;;;;;2.09;84.76;96940.30;1759943;81;21160;-82
2021/11/17 03:45:17;;;;;;;13.35;9.13;;;;;;;2.06;84.64;96943.09;1761039;81;21297;-82
2021/11/17 03:47:54;;;;;;;13.40;10.53;;;;;;;2.05;84.70;96937.15;1760806;81;21025;-82
2021/11/17 03:50:34;;;;;;;15.28;11.03;;;;;;;2.06;84.70;96932.84;1760083;81;20951;-82
2021/11/17 03:53:21;;;;;;;12.33;10.93;;;;;;;2.05;84.66;96932.48;1762358;81;21444;-81
2021/11/17 03:56:33;;;;;;;14.43;11.08;;;;;;;2.04;84.67;96927.02;1760305;81;21031;-82
2021/11/17 03:59:32;;;;;;;11.63;8.55;;;;;;;2.01;84.76;96924.69;1761108;81;20966;-81
2021/11/17 04:02:35;;;;;;;14.05;10.48;;;;;;;1.98;84.96;96915.95;1760867;81;20990;-82
2021/11/17 04:05:21;;;;;;;;;;;;;;;1.98;84.98;96914.67;1762038;81;21002;-82
2021/11/17 04:07:58;;;;;;;14.05;11.03;;;;;;;2.00;85.05;96919.22;1761005;81;20355;-82
2021/11/17 04:10:49;;;;;;;12.65;11.20;;;;;;;2.02;85.07;96922.01;1760571;81;21037;-82
2021/11/17 04:13:51;;;;;;;13.58;11.45;;;;;;;2.05;85.10;96919.67;1760939;81;21141;-82
2021/11/17 04:16:34;;;;;;;14.03;11.03;;;;;;;2.07;85.27;96918.62;1760995;81;21018;-82
2021/11/17 04:19:30;;;;;;;14.78;11.53;;;;;;;2.10;85.32;96914.54;1760923;81;21073;-82
2021/11/17 04:22:29;;;;;;;15.18;11.88;;;;;;;2.09;85.19;96915.94;1760869;81;21040;-82
2021/11/17 04:25:03;;;;;;;15.78;10.05;;;;;;;2.07;85.23;96913.96;1759663;81;21018;-82
2021/11/17 04:28:07;;;;;;;15.15;10.23;;;;;;;2.07;85.14;96908.37;1761430;81;21005;-82
2021/11/17 04:30:53;;;;;;;13.75;10.68;;;;;;;2.10;85.09;96913.25;1756774;80;21029;-81
2021/11/17 04:33:59;;;;;;;16.02;11.83;;;;;;;2.14;84.97;96910.48;1761004;81;21031;-82
2021/11/17 04:37:01;;;;;;;16.27;12.88;;;;;;;2.18;84.93;96906.28;1772170;81;21012;-82
2021/11/17 04:39:53;;;;;;;15.70;11.73;;;;;;;2.18;84.83;96908.03;1771791;81;21018;-82
2021/11/17 04:42:28;;;;;;;;;;;;;;;2.16;84.80;96910.71;1776319;81;21061;-82
2021/11/17 04:45:08;;;;;;;16.02;12.58;;;;;;;2.11;84.81;96908.94;1772442;81;20106;-82
2021/11/17 04:47:45;;;;;;;14.18;11.55;;;;;;;2.07;84.87;96911.40;1772539;81;21451;-82
2021/11/17 04:50:20;;;;;;;13.08;10.20;;;;;;;2.05;84.89;96911.52;1772466;81;21037;-82
2021/11/17 04:52:57;;;;;;;12.53;9.93;;;;;;;2.06;84.77;96911.86;1772543;81;21031;-82
2021/11/17 04:55:34;;;;;;;17.07;12.80;;;;;;;2.09;84.67;96911.63;1771684;81;21033;-82
2021/11/17 04:58:26;;;;;;;16.42;11.90;;;;;;;2.13;84.64;96917.36;1771857;81;20990;-82
2021/11/17 05:00:55;;;;;;;;;;;;;;;2.18;84.59;96913.16;1775271;81;21009;-82
2021/11/17 05:03:36;;;;;;;15.70;12.15;;;;;;;2.20;84.44;96918.52;1772641;81;20188;-82
2021/11/17 05:06:29;;;;;;;16.55;13.03;;;;;;;2.21;84.42;96911.64;1771778;81;21045;-82
2021/11/17 05:09:09;;;;;;;13.05;9.98;;;;;;;2.22;84.39;96910.70;1772693;81;21060;-82
2021/11/17 05:11:58;;;;;;;15.00;10.05;;;;;;;2.23;84.12;96913.61;1769769;81;21032;-82
2021/11/17 05:14:45;;;;;;;14.45;11.00;;;;;;;2.21;83.89;96907.79;1772649;81;21392;-82
2021/11/17 05:17:32;;;;;;;13.60;11.30;;;;;;;2.21;83.81;96907.33;1772018;81;21097;-82
2021/11/17 05:20:18;;;;;;;16.85;11.95;;;;;;;2.20;83.71;96906.98;1771261;81;21001;-82
2021/11/17 05:22:52;;;;;;;14.95;12.37;;;;;;;2.18;83.81;96905.47;1772645;81;21463;-82
2021/11/17 05:25:39;;;;;;;19.57;13.50;;;;;;;2.17;83.88;96917.94;1771643;81;21037;-82
2021/11/17 05:28:30;;;;;;;13.25;11.08;;;;;;;2.14;83.89;96916.43;1771073;81;21360;-83
2021/11/17 05:31:19;;;;;;;16.00;9.95;;;;;;;2.13;83.78;96921.67;1771007;81;21376;-83
2021/11/17 05:34:09;;;;;;;15.18;10.80;;;;;;;2.15;83.69;96919.34;1770857;80;21400;-83
2021/11/17 05:36:49;;;;;;;13.95;11.50;;;;;;;2.17;83.63;96920.50;1764135;81;21047;-83
2021/11/17 05:39:57;;;;;;;17.30;12.10;;;;;;;2.16;83.64;96919.69;1772365;81;21005;-83
2021/11/17 05:42:38;;;;;;;15.90;11.85;;;;;;;2.14;83.56;96928.43;1772535;81;21495;-83
2021/11/17 05:45:28;;;;;;;16.65;11.75;;;;;;;2.14;83.66;96923.30;1772506;81;21101;-83
2021/11/17 05:48:02;;;;;;;12.90;9.70;;;;;;;2.09;83.66;96920.59;1772570;81;21045;-83
2021/11/17 05:50:51;;;;;;;14.58;10.68;;;;;;;2.07;83.75;96923.75;1771464;81;20981;-83
2021/11/17 05:53:45;;;;;;;11.93;10.70;;;;;;;2.08;83.79;96924.09;1772539;81;21001;-83
2021/11/17 05:56:31;;;;;;;15.43;11.20;;;;;;;2.14;83.73;96929.25;1771733;81;21040;-83
2021/11/17 05:59:11;;;;;;;16.97;12.90;;;;;;;2.18;83.63;96937.05;1772615;81;21002;-83
2021/11/17 06:01:48;;;;;;;14.93;11.63;;;;;;;2.19;83.57;96930.98;1772666;81;20960;-83
2021/11/17 06:04:13;;;;;;;16.48;12.78;;;;;;;2.21;83.58;96929.58;1772410;81;21000;-83
2021/11/17 06:06:39;;;;;;;16.97;11.95;;;;;;;2.19;83.61;96929.70;1772444;81;21108;-83
2021/11/17 06:09:08;;;;;;;15.13;10.65;;;;;;;2.18;83.62;96929.82;1772594;81;21006;-83
2021/11/17 06:11:45;;;;;;;13.13;9.85;;;;;;;2.18;83.67;96927.26;1772393;81;21428;-83
2021/11/17 06:14:19;;;;;;;11.65;10.00;;;;;;;2.22;83.53;96933.78;1772362;81;21135;-83
2021/11/17 06:16:49;;;;;;;12.60;10.85;;;;;;;2.25;83.36;96935.64;1772584;81;20989;-83
2021/11/17 06:19:18;;;;;;;15.25;11.53;;;;;;;2.24;83.28;96937.85;1772578;81;21033;-83
2021/11/17 06:21:44;;;;;;;14.87;12.07;;;;;;;2.21;83.23;96941.12;1772452;81;21017;-83
2021/11/17 06:24:11;;;;;;;14.43;11.45;;;;;;;2.20;83.31;96943.34;1772508;81;20986;-83
2021/11/17 06:26:42;;;;;;;13.93;11.30;;;;;;;2.19;83.41;96937.86;1772406;81;20993;-83
2021/11/17 06:29:19;;;;;;;14.63;10.82;;;;;;;2.19;83.49;96939.14;1772440;81;21030;-83
2021/11/17 06:31:45;;;;;;;13.78;9.90;;;;;;;2.21;83.46;96940.66;1772438;81;21404;-83
2021/11/17 06:34:31;;;;;;;13.43;11.18;;;;;;;2.27;83.39;96943.21;1772432;81;21024;-82
2021/11/17 06:36:57;;;;;;;15.98;11.68;;;;;;;2.31;83.40;96943.34;1772567;81;21093;-83
2021/11/17 06:39:23;;;;;;;14.58;11.63;;;;;;;2.36;83.51;96944.63;1772501;81;21355;-83
2021/11/17 06:41:49;;;;;;;15.90;12.37;;;;;;;2.39;83.65;96943.09;1774316;81;21088;-82
2021/11/17 06:44:15;;;;;;;14.38;11.60;;;;;;;2.47;83.83;96943.00;1775106;81;21113;-83
2021/11/17 06:46:41;;;;;;;13.38;10.58;;;;;;;2.51;84.02;96940.06;1774898;81;21033;-83
2021/11/17 06:49:07;;;;;;;14.70;11.03;;;;;;;2.59;84.24;96940.27;1774919;81;21045;-83
2021/11/17 06:51:33;;;;;;;12.33;9.58;;;;;;;2.69;84.28;96941.20;1775140;81;21402;-83
2021/11/17 06:53:59;;;;;;;13.83;10.28;;;;;;;2.79;84.37;96934.91;1775074;81;21008;-82
2021/11/17 06:56:25;;;;;;;16.55;12.73;;;;;;;2.92;84.29;96940.69;1747150;81;21395;-83
2021/11/17 06:58:50;;;;;;;19.02;14.30;;;;;;;3.04;84.57;96935.06;1775245;81;20992;-83
2021/11/17 07:01:16;;;;;;;17.67;13.28;;;;;;;3.14;84.43;96942.39;1775178;81;21019;-82
2021/11/17 07:03:42;;;;;;;26.20;18.45;;;;;;;3.22;84.64;96940.48;1774976;81;21016;-82
2021/11/17 07:06:07;;;;;;;20.82;15.85;;;;;;;3.29;84.42;96943.73;1759175;80;21024;-82
2021/11/17 07:08:33;;;;;;;18.02;12.30;;;;;;;3.39;84.57;96943.80;1770824;81;20981;-83
2021/11/17 07:10:59;;;;;;;25.65;16.55;;;;;;;3.49;84.39;96936.98;1775133;81;21076;-83
2021/11/17 07:13:24;;;;;;;26.40;17.12;;;;;;;3.60;83.98;96935.66;1775076;81;21449;-83
2021/11/17 07:15:50;;;;;;;22.22;14.05;;;;;;;3.72;84.09;96941.53;1775118;81;21049;-83
2021/11/17 07:18:18;;;;;;;15.53;11.63;;;;;;;3.80;84.42;96934.02;1775139;81;21073;-83
2021/11/17 07:20:44;;;;;;;19.85;13.13;;;;;;;3.87;84.18;96936.42;1775230;81;21375;-83
2021/11/17 07:23:10;;;;;;;21.68;14.60;;;;;;;3.91;83.41;96933.15;1775182;81;21021;-83
2021/11/17 07:25:36;;;;;;;26.20;15.53;;;;;;;4.00;83.36;96927.70;1775283;81;20990;-83
2021/11/17 07:28:02;;;;;;;26.70;16.45;;;;;;;4.09;83.39;96936.77;1775114;81;22044;-83
2021/11/17 07:30:33;;;;;;;24.25;18.70;;;;;;;4.15;82.96;96937.52;1775077;81;21032;-83
2021/11/17 07:33:03;;;;;;;29.95;21.17;;;;;;;4.20;83.04;96932.80;1775079;81;21017;-83
2021/11/17 07:35:33;;;;;;;25.17;16.60;;;;;;;4.15;82.70;96928.52;1775127;81;21009;-83
2021/11/17 07:38:01;;;;;;;23.30;17.90;;;;;;;4.17;82.72;96935.64;1774922;81;21353;-83
2021/11/17 07:40:36;;;;;;;25.10;17.67;;;;;;;4.24;82.81;96935.95;1774965;80;21028;-83
2021/11/17 07:43:05;;;;;;;26.45;17.85;;;;;;;4.32;82.94;96941.25;1774651;81;21057;-83
2021/11/17 07:45:33;;;;;;;15.65;12.13;;;;;;;4.38;82.49;96935.58;1775171;81;21499;-83
2021/11/17 07:47:58;;;;;;;18.77;13.05;;;;;;;4.47;82.18;96937.86;1775466;81;20989;-83
2021/11/17 07:50:24;;;;;;;13.95;11.12;;;;;;;4.59;82.08;96945.02;1775280;81;21041;-83
2021/11/17 07:52:50;;;;;;;17.52;13.10;;;;;;;4.69;81.57;96938.94;1775060;81;21755;-83
2021/11/17 07:55:17;;;;;;;20.02;14.10;;;;;;;4.76;81.40;96936.67;1747067;81;21076;-83
2021/11/17 07:57:43;;;;;;;21.40;16.77;;;;;;;4.83;81.27;96935.18;1775080;81;21355;-83
2021/11/17 08:00:16;;;;;;;21.90;17.25;;;;;;;4.90;81.52;96935.48;1775193;81;21069;-83
2021/11/17 08:02:42;;;;;;;21.00;15.20;;;;;;;4.94;81.14;96934.27;1774684;81;21463;-83
2021/11/17 08:05:08;;;;;;;19.82;13.40;;;;;;;5.00;81.02;96928.56;1775237;81;20973;-82
2021/11/17 08:07:35;;;;;;;20.55;15.25;;;;;;;5.08;81.00;96933.88;1775042;81;21080;-83
2021/11/17 08:10:00;;;;;;;21.48;16.73;;;;;;;5.13;80.66;96940.25;1775285;81;20965;-83
2021/11/17 08:12:26;;;;;;;16.87;12.82;;;;;;;5.20;80.67;96937.94;1775375;81;21032;-82
2021/11/17 08:14:54;;;;;;;20.97;15.55;;;;;;;5.26;80.17;96936.13;1775121;81;21033;-82
2021/11/17 08:17:20;;;;;;;20.37;16.37;;;;;;;5.28;80.57;96940.67;1775343;81;20982;-80
2021/11/17 08:19:48;;;;;;;20.10;15.15;;;;;;;5.32;80.50;96942.49;1775254;81;20985;-82
2021/11/17 08:22:16;;;;;;;21.95;16.97;;;;;;;5.33;80.31;96938.97;1775314;81;21364;-82
2021/11/17 08:24:42;;;;;;;20.90;15.25;;;;;;;5.35;80.20;96938.35;1775254;81;21005;-82
2021/11/17 08:27:13;;;;;;;18.35;14.03;;;;;;;5.38;79.97;96942.78;1775292;81;21048;-82
2021/11/17 08:29:38;;;;;;;22.37;16.32;;;;;;;5.45;80.12;96944.81;1775108;81;20978;-82
2021/11/17 08:32:05;;;;;;;21.33;17.95;;;;;;;5.52;80.00;96942.02;1775256;81;21356;-82
2021/11/17 08:34:30;;;;;;;23.85;17.60;;;;;;;5.54;79.73;96938.85;1775228;81;20969;-81
2021/11/17 08:36:56;;;;;;;22.60;18.32;;;;;;;5.55;79.71;96945.16;1775252;81;21017;-82
2021/11/17 08:39:24;;;;;;;34.20;20.57;;;;;;;5.56;79.21;96937.76;1775200;81;20986;-82
2021/11/17 08:41:49;;;;;;;22.20;15.93;;;;;;;5.56;79.52;96939.05;1774250;81;21395;-82
2021/11/17 08:44:15;;;;;;;19.25;13.40;;;;;;;5.58;79.32;96930.70;1773191;81;21076;-81
2021/11/17 08:46:41;;;;;;;24.20;18.75;;;;;;;5.61;78.71;96930.42;1773290;81;20962;-82
2021/11/17 08:49:06;;;;;;;26.68;20.23;;;;;;;5.65;79.25;96931.77;1773349;81;21116;-82
2021/11/17 08:51:32;;;;;;;23.27;19.42;;;;;;;5.71;79.15;96940.73;1773200;81;20997;-82
2021/11/17 08:53:59;;;;;;;19.82;17.00;;;;;;;5.74;79.18;96946.90;1773378;81;20988;-82
2021/11/17 08:56:28;;;;;;;21.40;16.30;;;;;;;5.73;78.96;96943.51;1773299;81;21025;-82
2021/11/17 08:58:53;;;;;;;20.80;16.15;;;;;;;5.72;79.32;96943.65;1773387;81;20985;-82
2021/11/17 09:01:20;;;;;;;22.90;16.05;;;;;;;5.73;79.11;96946.56;1762654;80;21340;-81
2021/11/17 09:03:46;;;;;;;18.07;14.95;;;;;;;5.73;79.27;96946.56;1753744;81;21049;-82
2021/11/17 09:06:13;;;;;;;18.15;14.78;;;;;;;5.78;79.47;96948.72;1773046;81;21052;-82
2021/11/17 09:08:40;;;;;;;22.00;17.25;;;;;;;5.84;79.41;96954.61;1773361;81;21065;-82
2021/11/17 09:11:10;;;;;;;21.95;16.73;;;;;;;5.90;79.02;96949.76;1792038;80;21334;-82
2021/11/17 09:13:37;;;;;;;23.32;16.55;;;;;;;5.92;78.98;96950.42;1791956;80;21077;-82
2021/11/17 09:16:04;;;;;;;21.70;16.10;;;;;;;5.94;78.42;96945.94;1791938;80;21071;-82
2021/11/17 09:18:32;;;;;;;19.32;15.23;;;;;;;5.94;78.02;96949.00;1792077;80;21550;-82
2021/11/17 09:20:58;;;;;;;21.65;16.35;;;;;;;5.93;78.42;96953.34;1792115;80;21365;-82
2021/11/17 09:23:26;;;;;;;18.75;13.98;;;;;;;5.94;78.28;96952.39;1792049;80;21019;-82
2021/11/17 09:25:51;;;;;;;18.32;14.63;;;;;;;5.96;78.13;96944.51;1791770;80;21006;-81
2021/11/17 09:28:18;;;;;;;17.87;13.75;;;;;;;5.99;78.31;96937.30;1792043;80;21006;-82
2021/11/17 09:30:44;;;;;;;19.77;14.80;;;;;;;6.04;77.55;96939.48;1791983;80;21094;-82
2021/11/17 09:33:11;;;;;;;22.07;17.23;;;;;;;6.08;77.84;96933.08;1792032;80;21795;-82
2021/11/17 09:35:38;;;;;;;19.07;15.23;;;;;;;6.12;77.71;96938.30;1792061;80;21023;-82
2021/11/17 09:38:04;;;;;;;19.75;15.93;;;;;;;6.13;77.77;96938.63;1791944;80;21015;-81
2021/11/17 09:40:47;;;;;;;17.23;12.53;;;;;;;6.14;77.30;96940.25;1792046;80;21019;-82
2021/11/17 09:43:16;;;;;;;21.97;16.10;;;;;;;6.13;76.96;96946.37;1793955;80;21094;-82
2021/11/17 09:45:42;;;;;;;17.20;14.30;;;;;;;6.13;77.27;96941.69;1794288;80;21316;-82
2021/11/17 09:48:12;;;;;;;15.83;12.90;;;;;;;6.13;77.18;96937.81;1794118;80;21440;-82
2021/11/17 09:50:49;;;;;;;19.27;14.30;;;;;;;6.15;76.61;96945.75;1794216;80;20998;-82
2021/11/17 09:53:24;;;;;;;22.30;16.97;;;;;;;6.11;76.65;96935.85;1794084;80;21106;-82
2021/11/17 09:56:07;;;;;;;20.88;15.65;;;;;;;6.10;76.96;96936.81;1794295;80;21034;-81
2021/11/17 09:58:39;;;;;;;20.52;15.70;;;;;;;6.14;76.85;96935.56;1793863;80;21018;-82
2021/11/17 10:01:28;;;;;;;21.17;16.93;;;;;;;6.15;77.33;96941.88;1792845;79;20987;-81
2021/11/17 10:04:05;;;;;;;21.40;15.95;;;;;;;6.18;77.22;96942.06;1780493;80;21497;-81
2021/11/17 10:07:29;;;;;;;20.50;15.70;;;;;;;6.23;77.00;96933.45;1756497;82;21074;-81
2021/11/17 10:09:46;;;;;;;17.10;13.30;;;;;;;6.23;76.03;96930.39;1745268;82;20996;-82
2021/11/17 10:12:24;;;;;;;26.27;16.82;;;;;;;6.23;76.46;96927.81;1753103;82;21038;-81
2021/11/17 10:14:55;;;;;;;23.47;17.20;;;;;;;6.24;76.46;96922.17;1752042;82;21174;-82
2021/11/17 10:17:47;;;;;;;22.17;17.10;;;;;;;6.22;76.52;96921.50;1756486;81;21379;-82
2021/11/17 10:20:25;;;;;;;24.77;16.97;;;;;;;6.24;76.93;96925.56;1756629;81;21075;-82
2021/11/17 10:23:16;;;;;;;21.68;15.03;;;;;;;6.26;76.64;96928.00;1756386;81;21058;-81
2021/11/17 10:25:53;;;;;;;22.73;15.90;;;;;;;6.26;76.31;96923.65;1755986;82;21047;-82
2021/11/17 10:28:43;;;;;;;25.60;18.95;;;;;;;6.28;76.49;96916.58;1756481;81;21122;-82
2021/11/17 10:31:53;;;;;;;20.62;17.62;;;;;;;6.32;76.70;96920.48;1755256;82;21043;-83
2021/11/17 10:34:25;;;;;;;21.33;15.95;;;;;;;6.31;76.20;96921.45;1755698;82;21018;-82
2021/11/17 10:36:57;;;;;;;23.35;16.97;;;;;;;6.28;76.53;96922.22;1756637;82;21062;-81
2021/11/17 10:39:40;;;;;;;21.17;14.28;;;;;;;6.25;76.31;96910.41;1756559;81;21039;-80
2021/11/17 10:42:20;;;;;;;17.57;14.93;;;;;;;6.25;75.79;96913.47;1756427;81;21114;-81
2021/11/17 10:45:13;;;;;;;21.75;17.25;;;;;;;6.23;75.72;96908.94;1756204;81;21066;-82
2021/11/17 10:47:45;;;;;;;25.08;18.85;;;;;;;6.26;76.11;96915.09;1756433;81;21066;-81
2021/11/17 10:50:32;;;;;;;26.02;19.00;;;;;;;6.28;76.46;96911.41;1756567;82;21007;-82
2021/11/17 10:53:05;;;;;;;22.50;17.42;;;;;;;6.29;76.13;96913.52;1756067;82;21034;-82
2021/11/17 10:55:50;;;;;;;25.12;18.80;;;;;;;6.27;76.28;96906.40;1756428;81;21043;-82
2021/11/17 10:58:24;;;;;;;23.55;18.87;;;;;;;6.32;76.42;96907.59;1756330;82;21046;-82
2021/11/17 11:00:55;;;;;;;21.00;16.10;;;;;;;6.40;76.68;96904.79;1759118;79;20987;-82
2021/11/17 11:03:21;;;;;;;24.63;19.10;;;;;;;6.42;76.22;96903.69;1777715;80;21021;-82
2021/11/17 11:05:55;;;;;;;30.48;21.25;;;;;;;6.43;76.53;96901.44;1794285;80;20951;-82
2021/11/17 11:08:44;;;;;;;25.10;18.45;;;;;;;6.43;76.26;96902.73;1793936;80;21456;-82
2021/11/17 11:11:10;;;;;;;26.52;19.48;;;;;;;6.42;76.25;96895.94;1793389;80;20998;-82
2021/11/17 11:13:51;;;;;;;20.80;15.98;;;;;;;6.48;76.62;96904.88;1794233;80;21046;-82
2021/11/17 11:16:30;;;;;;;22.42;16.55;;;;;;;6.51;76.18;96899.45;1765547;80;21354;-82
2021/11/17 11:19:15;;;;;;;21.20;16.12;;;;;;;6.54;75.87;96903.03;1765550;80;21058;-81
2021/11/17 11:21:49;;;;;;;18.90;14.73;;;;;;;6.53;75.87;96899.63;1794150;80;21006;-82
2021/11/17 11:24:36;;;;;;;22.32;16.02;;;;;;;6.51;75.72;96900.26;1794170;80;21026;-82
2021/11/17 11:27:08;;;;;;;17.92;11.70;;;;;;;6.48;75.90;96894.06;1793617;80;21037;-81
2021/11/17 11:29:39;;;;;;;20.80;13.85;;;;;;;6.48;75.45;96896.65;1794295;80;21069;-82
2021/11/17 11:32:31;;;;;;;20.60;15.90;;;;;;;6.50;75.49;96907.64;1794463;80;21086;-82
2021/11/17 11:35:09;;;;;;;19.27;15.75;;;;;;;6.50;75.49;96894.73;1794261;80;21587;-82
2021/11/17 11:37:40;;;;;;;22.65;15.98;;;;;;;6.51;75.79;96898.16;1794323;80;21401;-82
2021/11/17 11:40:14;;;;;;;23.00;16.87;;;;;;;6.52;75.64;96890.27;1794681;80;21046;-81
2021/11/17 11:43:09;;;;;;;26.42;18.37;;;;;;;6.54;76.00;96896.57;1787892;80;21350;-82
2021/11/17 11:45:39;;;;;;;19.00;13.80;;;;;;;6.52;75.61;96898.48;1794183;80;21094;-82
2021/11/17 11:48:16;;;;;;;14.63;11.38;;;;;;;6.49;75.36;96888.42;1794264;80;21508;-81
2021/11/17 11:50:59;;;;;;;22.80;16.40;;;;;;;6.46;74.69;96889.53;1794364;80;20995;-82
2021/11/17 11:53:46;;;;;;;17.50;13.08;;;;;;;6.44;75.29;96888.05;1792794;80;21011;-81
2021/11/17 11:56:28;;;;;;;18.73;12.93;;;;;;;6.41;75.29;96887.86;1794221;80;21087;-82
2021/11/17 11:59:07;;;;;;;19.60;14.68;;;;;;;6.40;75.81;96887.53;1767250;80;21058;-82
2021/11/17 12:01:32;;;;;;;18.62;13.53;;;;;;;6.38;75.89;96893.32;1794210;80;21410;-81
2021/11/17 12:04:23;;;;;;;18.20;14.45;;;;;;;6.38;75.33;96892.50;1794328;80;20999;-82
2021/11/17 12:06:54;;;;;;;15.68;12.90;;;;;;;6.35;75.43;96893.61;1794283;80;21070;-81
2021/11/17 12:09:33;;;;;;;16.62;13.35;;;;;;;6.33;75.35;96898.89;1793071;80;21131;-81
2021/11/17 12:12:04;;;;;;;20.48;14.58;;;;;;;6.33;75.42;96903.23;1794355;80;21001;-82
2021/11/17 12:14:44;;;;;;;18.82;14.53;;;;;;;6.30;75.74;96901.76;1794198;80;21093;-82
2021/11/17 12:17:08;;;;;;;21.15;14.23;;;;;;;6.30;75.79;96895.30;1793876;80;20983;-82
2021/11/17 12:19:41;;;;;;;15.45;12.15;;;;;;;6.29;75.72;96898.03;1794037;80;21031;-81
2021/11/17 12:22:13;;;;;;;13.38;10.98;;;;;;;6.29;75.31;96899.32;1792620;80;21449;-81
2021/11/17 12:24:43;;;;;;;16.63;13.43;;;;;;;6.24;74.96;96897.17;1794513;80;20955;-82
2021/11/17 12:27:16;;;;;;;16.75;14.07;;;;;;;6.19;75.26;96898.09;1794132;80;21022;-81
2021/11/17 12:29:59;;;;;;;14.63;11.75;;;;;;;6.17;75.45;96897.39;1794216;80;20983;-82
2021/11/17 12:32:40;;;;;;;18.32;13.50;;;;;;;6.14;75.65;96898.16;1794429;80;21036;-82
2021/11/17 12:35:29;;;;;;;19.42;12.63;;;;;;;6.14;75.80;96900.26;1794315;80;21365;-82
2021/11/17 12:38:05;;;;;;;17.15;12.93;;;;;;;6.18;75.57;96904.66;1794413;80;20990;-82
2021/11/17 12:40:49;;;;;;;17.77;13.50;;;;;;;6.21;75.70;96903.91;1794277;80;21369;-80
2021/11/17 12:43:36;;;;;;;17.90;15.58;;;;;;;6.23;75.63;96903.30;1794137;80;21039;-82
2021/11/17 12:46:29;;;;;;;17.62;13.85;;;;;;;6.22;76.03;96897.80;1794268;80;21463;-82
2021/11/17 12:49:18;;;;;;;;;;;;;;;6.18;75.63;96895.17;1797050;80;21042;-82
2021/11/17 12:51:59;;;;;;;19.92;14.95;;;;;;;6.14;75.89;96895.09;1794280;80;20147;-83
2021/11/17 12:54:45;;;;;;;19.65;13.55;;;;;;;6.12;76.07;96891.03;1793477;80;21428;-82
2021/11/17 12:57:26;;;;;;;21.00;15.18;;;;;;;6.12;76.11;96895.72;1794204;80;21020;-82
2021/11/17 13:00:15;;;;;;;19.50;13.55;;;;;;;6.10;76.10;96892.95;1794405;80;21027;-82
2021/11/17 13:02:56;;;;;;;16.20;12.15;;;;;;;6.13;76.10;96897.82;1794231;80;21137;-82
2021/11/17 13:05:40;;;;;;;19.92;15.60;;;;;;;6.15;76.00;96895.43;1792891;80;21050;-82
2021/11/17 13:08:10;;;;;;;17.67;14.53;;;;;;;6.13;76.03;96900.41;1794161;80;20991;-82
2021/11/17 13:10:49;;;;;;;20.45;15.43;;;;;;;6.12;76.14;96898.30;1794152;80;21392;-82
2021/11/17 13:13:26;;;;;;;17.07;13.98;;;;;;;6.10;76.02;96892.95;1761308;80;20988;-82
2021/11/17 13:16:08;;;;;;;17.23;12.15;;;;;;;6.07;76.07;96887.59;1794245;80;21408;-82
2021/11/17 13:18:38;;;;;;;16.80;11.18;;;;;;;6.06;75.92;96886.45;1742255;80;21109;-81
2021/11/17 13:21:27;;;;;;;15.35;11.55;;;;;;;6.04;75.57;96885.78;1791990;80;21039;-82
2021/11/17 13:24:18;;;;;;;17.60;13.38;;;;;;;6.00;75.87;96884.75;1793914;80;21046;-82
2021/11/17 13:26:50;;;;;;;17.95;13.20;;;;;;;5.99;76.21;96884.42;1794393;80;21046;-82
2021/11/17 13:29:32;;;;;;;18.15;14.75;;;;;;;5.98;76.16;96877.63;1794089;80;21432;-80
2021/11/17 13:32:09;;;;;;;20.08;15.05;;;;;;;5.96;76.35;96876.97;1778767;80;21038;-82
2021/11/17 13:34:49;;;;;;;19.07;13.48;;;;;;;5.97;76.16;96881.17;1768074;80;20972;-82
2021/11/17 13:37:39;;;;;;;18.55;13.65;;;;;;;5.99;76.31;96883.13;1756504;82;21059;-82
2021/11/17 13:40:17;;;;;;;17.57;14.03;;;;;;;6.01;76.20;96879.92;1756451;82;21346;-82
2021/11/17 13:42:44;;;;;;;19.87;15.65;;;;;;;6.04;76.19;96880.62;1755273;82;21008;-82
2021/11/17 13:45:16;;;;;;;20.32;15.85;;;;;;;6.06;76.29;96884.69;1756090;82;21142;-82
2021/11/17 13:47:43;;;;;;;15.55;13.70;;;;;;;6.06;76.19;96887.27;1756451;82;21047;-82
2021/11/17 13:50:10;;;;;;;18.50;14.25;;;;;;;6.04;76.08;96889.17;1756505;81;21465;-82
2021/11/17 13:52:40;;;;;;;18.73;14.45;;;;;;;6.01;76.08;96889.44;1756578;82;21066;-81
2021/11/17 13:55:11;;;;;;;17.15;13.20;;;;;;;5.99;75.98;96889.58;1756529;81;21086;-81
2021/11/17 13:57:38;;;;;;;17.62;12.00;;;;;;;5.98;76.01;96889.24;1756401;82;21145;-82
2021/11/17 14:00:07;;;;;;;20.50;15.32;;;;;;;6.00;76.05;96889.09;1756523;81;21067;-82
2021/11/17 14:02:33;;;;;;;14.68;12.33;;;;;;;6.03;75.99;96884.16;1756447;81;21046;-81
2021/11/17 14:04:58;;;;;;;21.12;15.32;;;;;;;6.03;75.81;96885.45;1728779;82;20995;-82
2021/11/17 14:07:26;;;;;;;20.85;15.45;;;;;;;6.03;76.00;96881.10;1756507;81;20983;-81
2021/11/17 14:09:51;;;;;;;19.05;14.15;;;;;;;6.03;75.97;96879.00;1756593;82;21003;-82
2021/11/17 14:12:17;;;;;;;22.77;15.85;;;;;;;5.98;75.86;96875.53;1756508;81;21024;-82
2021/11/17 14:14:43;;;;;;;20.75;15.50;;;;;;;5.96;76.08;96873.09;1756439;81;21025;-82
2021/11/17 14:17:09;;;;;;;17.73;12.75;;;;;;;5.96;76.07;96879.55;1756429;81;20948;-82
2021/11/17 14:19:34;;;;;;;16.10;13.10;;;;;;;5.98;76.04;96881.50;1756535;82;20980;-82
2021/11/17 14:22:00;;;;;;;17.32;15.03;;;;;;;5.97;75.78;96881.17;1756624;81;21031;-82
2021/11/17 14:24:27;;;;;;;15.78;11.60;;;;;;;5.96;75.77;96883.41;1756571;82;20984;-82
2021/11/17 14:26:53;;;;;;;15.38;12.20;;;;;;;5.95;75.92;96872.77;1756435;82;21075;-82
2021/11/17 14:29:33;;;;;;;18.05;13.65;;;;;;;5.94;75.81;96877.59;1756584;81;21006;-82
2021/11/17 14:32:10;;;;;;;17.92;13.98;;;;;;;5.92;75.91;96875.63;1773655;79;21043;-82
2021/11/17 14:34:35;;;;;;;16.27;12.10;;;;;;;5.91;75.88;96871.42;1740441;81;21148;-81
2021/11/17 14:37:05;;;;;;;16.32;11.48;;;;;;;5.91;75.85;96868.84;1762946;81;21062;-82
2021/11/17 14:39:29;;;;;;;14.78;10.70;;;;;;;5.92;75.67;96865.79;1735765;81;21015;-82